Flaxton, North Dakota
Current Conditions -  °F | °C
As of 2:00 PM on Saturday 25 Oct 2014 (Local Time) from CYEN Reporting Station
Scattered Clouds Scattered Clouds  
Wind Chill: 55°   Ceiling: Unl
Heat Index: 55°   Visibility: 15mi
Dew Point: 28°   Wind: 8mph
Humidity: 36%   Direction: 210°SSW
Pressure: 30.06"   Gusts: NA
Location:  48.9°N, 102.39°W
Report Text: CYEN 251900Z 21007KT 15SM FEW130 SCT250 13/M02 A3006 RMK AC1CI0SLP199
Loading
Personal Weather Stations






























Interactive Weather Map
Tropical Storm Tracking
New forecast layout! Learn more

10-Day Weather Forecast

Advertisements
Track Severe Weather on mobile